createdAt,value
2022-11-17T00:00:30.709Z,3.50
2022-11-17T00:05:39.569Z,4.00
2022-11-17T00:10:44.312Z,3.40
2022-11-17T00:15:47.725Z,3.00
2022-11-17T00:21:09.405Z,3.40
2022-11-17T00:26:23.356Z,2.70
2022-11-17T00:31:46.622Z,3.10
2022-11-17T00:36:51.543Z,2.80
2022-11-17T00:41:54.447Z,3.20
2022-11-17T00:46:57.490Z,3.00
2022-11-17T00:52:00.954Z,2.30
2022-11-17T00:57:04.200Z,2.40
2022-11-17T01:02:07.015Z,4.20
2022-11-17T01:07:09.925Z,2.90
2022-11-17T01:12:13.574Z,3.20
2022-11-17T01:17:17.630Z,2.20
2022-11-17T01:22:20.457Z,2.40
2022-11-17T01:27:25.959Z,2.50
2022-11-17T01:32:29.236Z,2.60
2022-11-17T01:37:34.070Z,3.00
2022-11-17T01:42:37.862Z,2.60
2022-11-17T01:47:54.591Z,2.60
2022-11-17T01:53:03.007Z,2.80
2022-11-17T02:03:12.864Z,3.30
2022-11-17T02:08:17.218Z,5.80
2022-11-17T02:13:23.185Z,2.50
2022-11-17T02:18:26.341Z,2.70
2022-11-17T02:24:11.265Z,2.50
2022-11-17T02:29:37.099Z,2.30
2022-11-17T02:35:13.815Z,2.50
2022-11-17T02:40:23.830Z,2.40
2022-11-17T02:45:35.886Z,2.90
2022-11-17T02:50:38.818Z,2.60
2022-11-17T02:55:41.830Z,4.20
2022-11-17T03:01:14.263Z,2.50
2022-11-17T03:06:36.007Z,3.50
2022-11-17T03:12:55.696Z,3.00
2022-11-17T03:18:12.087Z,3.10
2022-11-17T03:23:19.464Z,2.60
2022-11-17T03:28:25.216Z,2.80
2022-11-17T03:33:28.131Z,3.40
2022-11-17T03:38:35.719Z,2.40
2022-11-17T03:43:41.025Z,3.80
2022-11-17T03:49:21.265Z,3.20
2022-11-17T03:54:24.581Z,4.60
2022-11-17T03:59:57.110Z,4.20
2022-11-17T04:05:06.342Z,3.10
2022-11-17T04:10:19.440Z,2.90
2022-11-17T04:15:41.752Z,3.00
2022-11-17T04:20:45.854Z,2.40
2022-11-17T04:26:12.681Z,2.70
2022-11-17T04:31:28.202Z,4.50
2022-11-17T04:36:46.917Z,2.70
2022-11-17T04:41:57.679Z,2.60
2022-11-17T04:47:04.298Z,2.70
2022-11-17T04:52:07.192Z,2.40
2022-11-17T04:57:10.019Z,2.50
2022-11-17T05:02:13.057Z,4.80
2022-11-17T05:07:16.383Z,2.60
2022-11-17T05:12:38.513Z,2.70
2022-11-17T05:17:41.361Z,2.60
2022-11-17T05:23:06.896Z,3.00
2022-11-17T05:28:10.813Z,2.80
2022-11-17T05:33:14.901Z,2.80
2022-11-17T05:38:18.037Z,3.00
2022-11-17T05:43:21.081Z,2.80
2022-11-17T05:48:24.104Z,2.00
2022-11-17T05:53:28.470Z,3.00
2022-11-17T05:58:33.554Z,3.20
2022-11-17T06:03:40.502Z,2.40
2022-11-17T06:08:43.400Z,3.30
2022-11-17T06:13:46.936Z,2.00
2022-11-17T06:18:55.683Z,3.50
2022-11-17T06:24:00.332Z,2.50
2022-11-17T06:29:04.015Z,2.50
2022-11-17T06:34:06.914Z,2.60
2022-11-17T06:39:09.725Z,2.00
2022-11-17T06:44:12.908Z,2.50
2022-11-17T06:49:15.775Z,1.70
2022-11-17T06:54:19.875Z,2.20
2022-11-17T06:59:22.918Z,2.70
2022-11-17T07:04:25.964Z,2.40
2022-11-17T07:09:29.163Z,3.50
2022-11-17T07:14:32.230Z,2.70
2022-11-17T07:19:35.281Z,3.30
2022-11-17T07:24:38.203Z,6.40
2022-11-17T07:29:41.788Z,3.20
2022-11-17T07:34:46.037Z,4.00
2022-11-17T07:39:48.936Z,4.30
2022-11-17T07:44:52.151Z,3.80
2022-11-17T07:49:55.553Z,3.40
2022-11-17T07:54:58.588Z,3.80
2022-11-17T08:00:02.226Z,4.00
2022-11-17T08:05:08.886Z,4.50
2022-11-17T08:10:13.604Z,4.50
2022-11-17T08:15:16.606Z,5.00
2022-11-17T08:20:19.458Z,5.70
2022-11-17T08:25:25.160Z,4.80
2022-11-17T08:30:28.766Z,4.50
2022-11-17T08:35:37.292Z,6.00
2022-11-17T08:40:41.443Z,4.60
2022-11-17T08:46:05.712Z,7.20
2022-11-17T08:51:12.073Z,5.20
2022-11-17T08:56:15.688Z,6.00
2022-11-17T09:01:18.935Z,4.60
2022-11-17T09:07:52.640Z,4.90
2022-11-17T09:13:38.668Z,4.70
2022-11-17T09:18:42.015Z,5.50
2022-11-17T09:31:30.207Z,4.70
2022-11-17T10:11:51.941Z,6.40
2022-11-17T10:24:57.971Z,7.60
2022-11-17T10:30:14.590Z,7.10
2022-11-17T10:35:37.213Z,11.50
2022-11-17T10:40:41.382Z,8.80
2022-11-17T10:45:48.409Z,11.20
2022-11-17T10:51:04.309Z,8.80
2022-11-17T10:56:16.416Z,11.20
2022-11-17T11:01:32.655Z,8.70
2022-11-17T11:06:36.153Z,6.80
2022-11-17T11:11:48.589Z,7.20
2022-11-17T11:16:51.678Z,8.70
2022-11-17T11:22:16.958Z,7.80
2022-11-17T11:27:47.523Z,7.50
2022-11-17T11:33:41.427Z,8.00
2022-11-17T11:39:04.640Z,6.70
2022-11-17T11:44:41.239Z,6.70
2022-11-17T11:49:57.560Z,6.70
2022-11-17T11:55:31.819Z,8.90
2022-11-17T12:00:34.787Z,5.90
2022-11-17T12:06:40.622Z,5.70
2022-11-17T12:12:02.084Z,6.70
2022-11-17T12:17:13.912Z,7.70
2022-11-17T12:22:29.441Z,6.40
2022-11-17T12:27:43.861Z,6.00
2022-11-17T12:32:53.117Z,6.00
2022-11-17T12:38:14.390Z,6.00
2022-11-17T12:43:25.507Z,5.40
2022-11-17T12:48:36.937Z,6.80
2022-11-17T12:54:08.206Z,5.50
2022-11-17T12:59:30.109Z,7.80
2022-11-17T13:04:52.292Z,5.60
2022-11-17T13:09:59.094Z,5.20
2022-11-17T13:15:05.246Z,7.30
2022-11-17T13:20:29.756Z,5.60
2022-11-17T13:25:34.245Z,5.60
2022-11-17T13:30:37.592Z,16.10
2022-11-17T13:35:41.653Z,11.00
2022-11-17T13:40:59.611Z,6.60
2022-11-17T13:46:04.393Z,7.10
2022-11-17T13:51:28.078Z,6.80
2022-11-17T13:56:39.495Z,9.90
2022-11-17T14:01:42.525Z,7.20
2022-11-17T14:06:54.442Z,7.70
2022-11-17T14:12:01.897Z,7.40
2022-11-17T14:17:20.988Z,7.00
2022-11-17T14:22:31.322Z,6.80
2022-11-17T14:27:36.266Z,5.80
2022-11-17T14:32:40.459Z,6.20
2022-11-17T14:37:44.745Z,6.00
2022-11-17T14:42:48.178Z,6.00
2022-11-17T14:47:51.334Z,5.90
2022-11-17T14:52:54.435Z,6.90
2022-11-17T14:57:57.497Z,8.20
2022-11-17T15:03:00.425Z,9.70
2022-11-17T15:08:05.041Z,10.00
2022-11-17T15:13:08.455Z,11.30
2022-11-17T15:18:14.033Z,12.50
2022-11-17T15:23:17.084Z,12.60
2022-11-17T15:28:23.048Z,13.90
2022-11-17T15:33:26.229Z,15.60
2022-11-17T15:38:30.780Z,14.60
2022-11-17T15:43:37.301Z,13.40
2022-11-17T15:48:44.565Z,11.50
2022-11-17T15:53:48.057Z,13.30
2022-11-17T15:59:01.935Z,12.70
2022-11-17T16:04:10.805Z,14.10
2022-11-17T16:09:14.054Z,11.50
2022-11-17T16:14:17.477Z,17.10
2022-11-17T16:19:22.382Z,16.50
2022-11-17T16:24:25.318Z,15.20
2022-11-17T16:29:28.246Z,13.90
2022-11-17T16:34:31.190Z,15.00
2022-11-17T16:39:34.051Z,14.80
2022-11-17T16:44:37.021Z,16.30
2022-11-17T16:49:39.952Z,16.10
2022-11-17T16:54:43.249Z,27.10
2022-11-17T16:59:46.217Z,26.10
2022-11-17T17:04:50.511Z,22.80
2022-11-17T17:09:53.564Z,27.00
2022-11-17T17:14:56.590Z,23.80
2022-11-17T17:19:59.662Z,25.60
2022-11-17T17:25:03.853Z,23.40
2022-11-17T17:30:08.910Z,22.80
2022-11-17T17:35:11.765Z,22.40
2022-11-17T17:40:14.843Z,24.00
2022-11-17T17:45:17.909Z,26.20
2022-11-17T17:50:20.796Z,28.10
2022-11-17T17:55:25.257Z,30.70
2022-11-17T18:00:31.592Z,24.80
2022-11-17T18:05:35.788Z,28.40
2022-11-17T18:10:38.874Z,36.00
2022-11-17T18:15:42.419Z,33.80
2022-11-17T18:20:46.521Z,33.90
2022-11-17T18:25:49.439Z,30.50
2022-11-17T18:30:53.205Z,33.10
2022-11-17T18:36:07.037Z,29.70
2022-11-17T18:41:12.685Z,33.30
2022-11-17T18:46:18.528Z,36.10
2022-11-17T18:51:28.270Z,34.10
2022-11-17T18:56:34.484Z,35.10
2022-11-17T19:01:39.131Z,33.70
2022-11-17T19:06:44.161Z,35.30
2022-11-17T19:11:47.101Z,33.20
2022-11-17T19:16:50.963Z,35.50
2022-11-17T19:21:53.914Z,35.60
2022-11-17T19:26:56.901Z,33.90
2022-11-17T19:32:00.243Z,35.20
2022-11-17T19:37:05.537Z,31.70
2022-11-17T19:42:10.076Z,32.40
2022-11-17T19:47:13.384Z,32.20
2022-11-17T19:52:16.965Z,30.50
2022-11-17T19:57:20.026Z,28.70
2022-11-17T20:02:22.918Z,31.50
2022-11-17T20:07:26.305Z,32.20
2022-11-17T20:12:29.289Z,22.50
2022-11-17T20:17:34.959Z,26.30
2022-11-17T20:22:42.329Z,28.10
2022-11-17T20:27:45.882Z,26.30
2022-11-17T20:32:48.761Z,32.40
2022-11-17T20:37:51.684Z,21.10
2022-11-17T20:42:54.575Z,18.30
2022-11-17T20:47:57.887Z,19.10
2022-11-17T20:53:03.184Z,15.50
2022-11-17T20:58:06.080Z,15.70
2022-11-17T21:03:09.153Z,14.90
2022-11-17T21:08:12.190Z,18.70
2022-11-17T21:13:15.078Z,22.00
2022-11-17T21:18:23.932Z,33.90
2022-11-17T21:23:27.941Z,33.90
2022-11-17T21:28:31.280Z,36.10
2022-11-17T21:33:35.700Z,35.70
2022-11-17T21:38:38.742Z,24.70
2022-11-17T21:43:45.047Z,24.50
2022-11-17T21:48:48.356Z,29.10
2022-11-17T21:53:56.639Z,30.40
2022-11-17T21:59:02.111Z,28.50
2022-11-17T22:04:05.140Z,26.70
2022-11-17T22:09:08.158Z,24.90
2022-11-17T22:14:16.353Z,24.40
2022-11-17T22:19:22.302Z,28.40
2022-11-17T22:24:25.232Z,28.50
2022-11-17T22:29:29.209Z,27.00
2022-11-17T22:34:32.054Z,27.00
2022-11-17T22:39:34.912Z,30.00
2022-11-17T22:44:37.776Z,30.00
2022-11-17T22:49:40.710Z,34.90
2022-11-17T22:54:43.541Z,29.60
2022-11-17T22:59:46.552Z,34.00
2022-11-17T23:04:49.438Z,41.50
2022-11-17T23:09:52.291Z,52.20
2022-11-17T23:14:55.268Z,49.40
2022-11-17T23:19:58.547Z,48.70
2022-11-17T23:25:02.552Z,46.70
2022-11-17T23:30:06.958Z,46.20
2022-11-17T23:35:10.402Z,36.20
2022-11-17T23:40:13.645Z,31.00
2022-11-17T23:45:17.045Z,27.40
2022-11-17T23:50:19.999Z,23.30
2022-11-17T23:55:22.890Z,21.20
